Time;durP1;ratioP1;P1;durP2;ratioP2;P2;SDS_P1;SDS_P2;PMS_P1;PMS_P2;Temp;Humidity;BMP_temperature;BMP_pressure;BME280_temperature;BME280_humidity;BME280_pressure;Samples;Min_cycle;Max_cycle;Signal;HPM_P1;HPM_P2
2022/03/15 00:01:19;;;;;;;0.10;0.10;;;3.00;1.00;226.50;231333.00;;;;4981792;28;20228;-72
2022/03/15 00:03:48;;;;;;;0.10;0.10;;;3.00;1.00;226.50;231333.00;;;;4982729;28;20292;-70
2022/03/15 00:06:17;;;;;;;0.10;0.10;;;3.00;1.00;226.50;231333.00;;;;4982765;28;20225;-72
2022/03/15 00:08:47;;;;;;;0.10;0.10;;;3.00;1.00;226.50;231333.00;;;;4982547;28;20619;-70
2022/03/15 00:11:15;;;;;;;0.10;0.10;;;2.90;1.00;226.50;231333.00;;;;4966049;28;20615;-70
2022/03/15 00:13:46;;;;;;;0.10;0.10;;;2.90;1.00;226.50;231333.00;;;;4983315;28;20247;-70
2022/03/15 00:16:14;;;;;;;0.10;0.10;;;3.00;1.00;226.50;231333.00;;;;4982026;28;20250;-70
2022/03/15 00:18:43;;;;;;;0.10;0.10;;;2.70;1.00;226.50;231333.00;;;;4982470;28;20201;-70
2022/03/15 00:21:12;;;;;;;0.10;0.10;;;2.60;1.00;226.50;231333.00;;;;4982063;28;20221;-70
2022/03/15 00:23:42;;;;;;;0.10;0.10;;;2.60;1.00;226.50;231333.00;;;;4982042;28;20204;-70
2022/03/15 00:26:10;;;;;;;0.10;0.10;;;2.70;1.00;226.50;231333.00;;;;4981958;28;20694;-70
2022/03/15 00:28:38;;;;;;;0.10;0.10;;;2.70;1.00;226.50;231333.00;;;;4982227;28;20596;-70
2022/03/15 00:31:06;;;;;;;0.10;0.10;;;2.70;1.00;226.50;231333.00;;;;4964607;28;20275;-70
2022/03/15 00:33:34;;;;;;;0.10;0.10;;;2.70;1.00;226.50;231333.00;;;;4964819;28;20275;-70
2022/03/15 00:36:02;;;;;;;0.10;0.10;;;2.70;1.00;226.50;231333.00;;;;4982717;28;20203;-70
2022/03/15 00:38:32;;;;;;;0.10;0.10;;;2.70;1.00;226.50;231333.00;;;;4983087;28;20255;-70
2022/03/15 00:41:00;;;;;;;0.10;0.10;;;2.60;1.00;226.50;231333.00;;;;4964475;28;20613;-70
2022/03/15 00:43:29;;;;;;;0.20;0.20;;;2.60;1.00;226.50;231333.00;;;;4964985;28;20221;-70
2022/03/15 00:45:56;;;;;;;0.10;0.10;;;2.50;1.00;226.50;231333.00;;;;4965285;28;21337;-70
2022/03/15 00:48:24;;;;;;;0.20;0.20;;;2.40;1.00;226.50;231333.00;;;;4985621;28;20699;-70
2022/03/15 00:50:54;;;;;;;0.10;0.10;;;2.40;1.00;226.50;231333.00;;;;4987257;28;20216;-70
2022/03/15 00:53:23;;;;;;;0.10;0.10;;;2.40;1.00;226.50;231333.00;;;;4984057;28;20200;-71
2022/03/15 00:55:52;;;;;;;0.10;0.10;;;2.40;1.00;226.50;231333.00;;;;4982325;28;20204;-71
2022/03/15 00:58:24;;;;;;;0.10;0.10;;;2.30;1.00;226.50;231333.00;;;;4983278;28;20188;-70
2022/03/15 01:00:52;;;;;;;0.10;0.10;;;2.30;1.00;226.50;231333.00;;;;4965044;28;20760;-70
2022/03/15 01:03:20;;;;;;;0.10;0.10;;;2.30;1.00;226.50;231333.00;;;;4982285;28;20220;-71
2022/03/15 01:05:48;;;;;;;0.10;0.10;;;2.40;1.00;226.50;231333.00;;;;4982103;28;20264;-71
2022/03/15 01:08:16;;;;;;;0.10;0.10;;;2.50;1.00;226.50;231333.00;;;;4982556;28;20192;-70
2022/03/15 01:10:44;;;;;;;0.10;0.10;;;2.50;1.00;226.50;231333.00;;;;4964072;28;20220;-70
2022/03/15 01:13:14;;;;;;;0.13;0.13;;;2.50;1.00;226.50;231333.00;;;;4979756;28;20251;-70
2022/03/15 01:15:43;;;;;;;0.10;0.10;;;2.60;1.00;226.50;231333.00;;;;4979985;28;20246;-71
2022/03/15 01:18:13;;;;;;;0.10;0.10;;;2.50;1.00;226.50;231333.00;;;;4981090;28;20649;-71
2022/03/15 01:20:43;;;;;;;0.10;0.10;;;2.60;1.00;226.50;231333.00;;;;4983145;28;20221;-71
2022/03/15 01:23:12;;;;;;;0.10;0.10;;;2.60;1.00;226.50;231333.00;;;;4964345;28;20200;-71
2022/03/15 01:25:40;;;;;;;0.10;0.10;;;2.50;1.00;226.50;231333.00;;;;4979515;28;20224;-71
2022/03/15 01:28:10;;;;;;;0.10;0.10;;;2.40;1.00;226.50;231333.00;;;;4981762;28;20577;-71
2022/03/15 01:30:40;;;;;;;0.10;0.10;;;2.20;1.00;226.50;231333.00;;;;4981657;28;20228;-70
2022/03/15 01:33:09;;;;;;;0.10;0.10;;;2.20;1.00;226.50;231333.00;;;;4980281;28;20254;-70
2022/03/15 01:35:41;;;;;;;0.10;0.10;;;2.20;1.00;226.50;231333.00;;;;4963341;28;20204;-70
2022/03/15 01:38:09;;;;;;;0.10;0.10;;;2.20;1.00;226.50;231333.00;;;;4981642;28;20230;-71
2022/03/15 01:40:37;;;;;;;0.10;0.10;;;2.30;1.00;226.50;231333.00;;;;4979781;28;20591;-71
2022/03/15 01:43:08;;;;;;;0.10;0.10;;;2.30;1.00;226.50;231333.00;;;;4981096;28;20767;-71
2022/03/15 01:45:41;;;;;;;0.10;0.10;;;2.40;1.00;226.50;231333.00;;;;4964512;28;20232;-71
2022/03/15 01:48:11;;;;;;;0.10;0.10;;;2.50;1.00;226.50;231333.00;;;;4982090;28;20588;-71
2022/03/15 01:50:39;;;;;;;0.10;0.10;;;2.50;1.00;226.50;231333.00;;;;4980889;28;20233;-70
2022/03/15 01:53:08;;;;;;;0.10;0.10;;;2.40;1.00;226.50;231333.00;;;;4980900;28;20255;-70
2022/03/15 01:55:40;;;;;;;0.10;0.10;;;2.30;1.00;226.50;231333.00;;;;4963784;28;20713;-71
2022/03/15 01:58:08;;;;;;;0.10;0.10;;;2.30;1.00;226.50;231333.00;;;;4984904;28;20200;-70
2022/03/15 02:00:37;;;;;;;0.10;0.10;;;2.30;1.00;226.50;231333.00;;;;4968249;28;20244;-71
2022/03/15 02:03:07;;;;;;;0.10;0.10;;;2.30;1.00;226.50;231333.00;;;;4968538;28;20196;-70
2022/03/15 02:05:35;;;;;;;0.10;0.10;;;2.30;1.00;226.50;231333.00;;;;4984507;28;21083;-70
2022/03/15 02:08:11;;;;;;;0.10;0.10;;;2.30;1.00;226.50;231333.00;;;;4984569;28;20662;-71
2022/03/15 02:10:39;;;;;;;0.10;0.10;;;2.40;1.00;226.50;231333.00;;;;4983554;28;20216;-71
2022/03/15 02:13:07;;;;;;;0.10;0.10;;;2.50;1.00;226.50;231333.00;;;;4984702;28;20201;-71
2022/03/15 02:15:36;;;;;;;0.10;0.10;;;2.50;1.00;226.50;231333.00;;;;4984782;28;20689;-71
2022/03/15 02:18:06;;;;;;;0.10;0.10;;;2.40;1.00;226.50;231333.00;;;;4967927;28;20200;-71
2022/03/15 02:20:35;;;;;;;0.10;0.10;;;2.30;1.00;226.50;231333.00;;;;4985110;28;20213;-71
2022/03/15 02:23:04;;;;;;;0.10;0.10;;;2.30;1.00;226.50;231333.00;;;;4986104;28;20601;-71
2022/03/15 02:25:32;;;;;;;0.08;0.08;;;2.30;1.00;226.50;231333.00;;;;4968300;28;20246;-71
2022/03/15 02:28:01;;;;;;;0.10;0.10;;;2.30;1.00;226.50;231333.00;;;;4984942;28;20196;-71
2022/03/15 02:30:30;;;;;;;0.10;0.10;;;2.40;1.00;226.50;231333.00;;;;4988497;28;20227;-70
2022/03/15 02:33:00;;;;;;;0.10;0.10;;;2.30;1.00;226.50;231333.00;;;;4993732;28;20199;-71
2022/03/15 02:35:28;;;;;;;0.10;0.10;;;2.40;1.00;226.50;231333.00;;;;4978957;28;20266;-71
2022/03/15 02:37:57;;;;;;;0.10;0.10;;;2.50;1.00;226.50;231333.00;;;;4991255;28;20197;-71
2022/03/15 02:40:26;;;;;;;0.10;0.10;;;2.60;1.00;226.50;231333.00;;;;4991302;28;20220;-71
2022/03/15 02:42:54;;;;;;;0.10;0.10;;;2.70;1.00;226.50;231333.00;;;;4990146;28;20201;-71
2022/03/15 02:45:22;;;;;;;0.10;0.10;;;2.50;1.00;226.50;231333.00;;;;4986244;28;20236;-71
2022/03/15 02:47:50;;;;;;;0.10;0.10;;;2.60;1.00;226.50;231333.00;;;;4984326;28;20232;-71
2022/03/15 02:50:19;;;;;;;0.10;0.10;;;2.70;1.00;226.50;231333.00;;;;4984284;28;20244;-71
2022/03/15 02:52:47;;;;;;;0.10;0.10;;;2.70;1.00;226.50;231333.00;;;;4983946;28;20201;-71
2022/03/15 02:55:18;;;;;;;0.10;0.10;;;2.60;1.00;226.50;231333.00;;;;4983402;28;20248;-72
2022/03/15 02:57:48;;;;;;;0.10;0.10;;;2.30;1.00;226.50;231333.00;;;;4983838;28;20220;-72
2022/03/15 03:00:17;;;;;;;0.10;0.10;;;2.20;1.00;226.50;231333.00;;;;4983477;28;20216;-72
2022/03/15 03:02:45;;;;;;;0.10;0.10;;;2.20;1.00;226.50;231333.00;;;;4984214;28;20247;-72
2022/03/15 03:05:13;;;;;;;0.10;0.10;;;2.40;1.00;226.50;231333.00;;;;4983181;28;20827;-72
2022/03/15 03:07:42;;;;;;;0.10;0.10;;;2.50;1.00;226.50;231333.00;;;;4982686;28;20732;-72
2022/03/15 03:10:10;;;;;;;0.10;0.10;;;2.30;1.00;226.50;231333.00;;;;4982701;28;20221;-71
2022/03/15 03:12:41;;;;;;;0.10;0.10;;;2.20;1.00;226.50;231333.00;;;;4983927;28;20197;-71
2022/03/15 03:15:11;;;;;;;0.10;0.10;;;2.30;1.00;226.50;231333.00;;;;4983898;28;20201;-72
2022/03/15 03:17:40;;;;;;;0.10;0.10;;;2.10;1.00;226.50;231333.00;;;;4983092;28;20574;-72
2022/03/15 03:20:11;;;;;;;0.10;0.10;;;2.10;1.00;226.50;231333.00;;;;4983720;28;20311;-70
2022/03/15 03:22:41;;;;;;;0.10;0.10;;;2.00;1.00;226.50;231333.00;;;;4983230;28;20209;-71
2022/03/15 03:25:10;;;;;;;0.10;0.10;;;2.00;1.00;226.50;231333.00;;;;4983882;28;20693;-71
2022/03/15 03:27:39;;;;;;;0.10;0.10;;;2.10;1.00;226.50;231333.00;;;;4984055;28;20251;-71
2022/03/15 03:30:09;;;;;;;0.10;0.10;;;2.00;1.00;226.50;231333.00;;;;4983621;28;20224;-70
2022/03/15 03:32:37;;;;;;;0.10;0.10;;;2.00;1.00;226.50;231333.00;;;;4972937;28;20188;-71
2022/03/15 03:35:06;;;;;;;0.10;0.10;;;1.90;1.00;226.50;231333.00;;;;4983411;28;20264;-71
2022/03/15 03:37:34;;;;;;;0.10;0.10;;;1.90;1.00;226.50;231333.00;;;;4982633;28;20209;-70
2022/03/15 03:40:07;;;;;;;0.10;0.10;;;1.80;1.00;226.50;231333.00;;;;4983056;28;20682;-71
2022/03/15 03:42:37;;;;;;;0.03;0.03;;;1.70;1.00;226.50;231333.00;;;;4983472;28;20563;-70
2022/03/15 03:45:07;;;;;;;0.10;0.10;;;1.90;1.00;226.50;231333.00;;;;4983162;28;20723;-70
2022/03/15 03:47:35;;;;;;;0.10;0.10;;;1.90;1.00;226.50;231333.00;;;;4982458;28;20221;-71
2022/03/15 03:50:08;;;;;;;0.10;0.10;;;1.90;1.00;226.50;231333.00;;;;4982741;28;20396;-71
2022/03/15 03:52:36;;;;;;;0.15;0.15;;;1.80;1.00;226.50;231333.00;;;;4983433;28;20596;-71
2022/03/15 03:55:04;;;;;;;0.10;0.10;;;1.90;1.00;226.50;231333.00;;;;4965462;28;20224;-71
2022/03/15 03:57:32;;;;;;;0.10;0.10;;;1.70;1.00;226.50;231333.00;;;;4982182;28;20772;-71
2022/03/15 04:00:00;;;;;;;0.10;0.10;;;1.70;1.00;226.50;231333.00;;;;4982833;28;20276;-71
2022/03/15 04:02:30;;;;;;;0.10;0.10;;;1.80;1.00;226.50;231333.00;;;;4982661;28;20601;-71
2022/03/15 04:04:58;;;;;;;0.10;0.10;;;1.80;1.00;226.50;231333.00;;;;4981945;28;20197;-71
2022/03/15 04:07:27;;;;;;;0.10;0.10;;;1.80;1.00;226.50;231333.00;;;;4981365;28;20231;-72
2022/03/15 04:09:54;;;;;;;0.15;0.15;;;1.70;1.00;226.50;231333.00;;;;4982687;28;20248;-71
2022/03/15 04:12:24;;;;;;;0.10;0.10;;;1.80;1.00;226.50;231333.00;;;;4982764;28;20197;-71
2022/03/15 04:14:53;;;;;;;0.10;0.10;;;1.90;1.00;226.50;231333.00;;;;4983485;28;20219;-72
2022/03/15 04:17:21;;;;;;;0.10;0.10;;;1.80;1.00;226.50;231333.00;;;;4982074;28;20584;-72
2022/03/15 04:19:50;;;;;;;0.03;0.03;;;1.90;1.00;226.50;231333.00;;;;4982439;28;20739;-71
2022/03/15 04:22:18;;;;;;;0.10;0.10;;;1.80;1.00;226.50;231333.00;;;;4983326;28;20193;-71
2022/03/15 04:24:46;;;;;;;0.10;0.10;;;1.90;1.00;226.50;231333.00;;;;4982774;28;20204;-71
2022/03/15 04:27:15;;;;;;;0.10;0.10;;;1.80;1.00;226.50;231333.00;;;;4982423;28;20221;-72
2022/03/15 04:29:43;;;;;;;0.10;0.10;;;1.90;1.00;226.50;231333.00;;;;4983699;28;20242;-72
2022/03/15 04:32:11;;;;;;;0.10;0.10;;;1.80;1.00;226.50;231333.00;;;;4984352;28;20197;-72
2022/03/15 04:34:39;;;;;;;0.10;0.10;;;1.80;1.00;226.50;231333.00;;;;4984707;28;20197;-71
2022/03/15 04:37:09;;;;;;;0.10;0.10;;;1.60;1.00;226.50;231333.00;;;;4981767;28;20205;-71
2022/03/15 04:39:37;;;;;;;0.20;0.20;;;1.70;1.00;226.50;231333.00;;;;4982190;28;20209;-71
2022/03/15 04:42:06;;;;;;;0.10;0.10;;;1.60;1.00;226.50;231333.00;;;;4981869;28;20201;-71
2022/03/15 04:44:34;;;;;;;0.10;0.10;;;1.70;1.00;226.50;231333.00;;;;4981404;28;20669;-71
2022/03/15 04:47:03;;;;;;;0.10;0.10;;;1.70;1.00;226.50;231333.00;;;;4981256;28;20197;-71
2022/03/15 04:49:31;;;;;;;0.10;0.10;;;1.70;1.00;226.50;231333.00;;;;4981684;28;20216;-71
2022/03/15 04:51:59;;;;;;;0.15;0.15;;;1.70;1.00;226.50;231333.00;;;;4982722;28;20193;-71
2022/03/15 04:54:28;;;;;;;0.10;0.10;;;1.60;1.00;226.50;231333.00;;;;4982417;28;20205;-71
2022/03/15 04:56:56;;;;;;;0.10;0.10;;;1.50;1.00;226.50;231333.00;;;;4982561;28;20205;-72
2022/03/15 04:59:24;;;;;;;0.10;0.10;;;1.50;1.00;226.50;231333.00;;;;4982145;28;20224;-72
2022/03/15 05:01:53;;;;;;;0.20;0.20;;;1.60;1.00;226.50;231333.00;;;;4982701;28;20196;-71
2022/03/15 05:04:21;;;;;;;0.10;0.10;;;1.50;1.00;226.50;231333.00;;;;4981263;28;20205;-71
2022/03/15 05:06:49;;;;;;;0.20;0.20;;;1.50;1.00;226.50;231333.00;;;;4983460;28;20200;-71
2022/03/15 05:09:16;;;;;;;0.17;0.17;;;1.70;1.00;226.50;231333.00;;;;4981623;28;20260;-71
2022/03/15 05:11:48;;;;;;;0.10;0.10;;;1.60;1.00;226.50;231333.00;;;;4981653;28;20255;-71
2022/03/15 05:14:16;;;;;;;0.10;0.10;;;1.60;1.00;226.50;231333.00;;;;4980970;28;21859;-71
2022/03/15 05:16:44;;;;;;;0.10;0.10;;;1.50;1.00;226.50;231333.00;;;;4980439;28;20220;-71
2022/03/15 05:19:13;;;;;;;0.10;0.10;;;1.50;1.00;226.50;231333.00;;;;4980327;28;20200;-71
2022/03/15 05:21:41;;;;;;;0.10;0.10;;;1.70;1.00;226.50;231333.00;;;;4981894;28;20600;-71
2022/03/15 05:24:09;;;;;;;0.10;0.10;;;1.70;1.00;226.50;231333.00;;;;4983201;28;20258;-72
2022/03/15 05:26:37;;;;;;;0.20;0.20;;;1.70;1.00;226.50;231333.00;;;;4981842;28;20207;-72
2022/03/15 05:29:07;;;;;;;0.20;0.20;;;1.70;1.00;226.50;231333.00;;;;4982637;28;20275;-72
2022/03/15 05:31:35;;;;;;;0.10;0.10;;;1.70;1.00;226.50;231333.00;;;;4980668;28;20611;-72
2022/03/15 05:34:04;;;;;;;0.10;0.10;;;1.80;1.00;226.50;231333.00;;;;4981953;28;20223;-72
2022/03/15 05:36:32;;;;;;;0.20;0.20;;;1.70;1.00;226.50;231333.00;;;;4981252;28;20725;-72
2022/03/15 05:39:00;;;;;;;0.10;0.10;;;1.80;1.00;226.50;231333.00;;;;4980711;28;20255;-72
2022/03/15 05:41:27;;;;;;;0.10;0.10;;;1.80;1.00;226.50;231333.00;;;;4980795;28;20233;-71
2022/03/15 05:43:56;;;;;;;0.10;0.10;;;1.70;1.00;226.50;231333.00;;;;4980859;28;20205;-71
2022/03/15 05:46:25;;;;;;;0.10;0.10;;;1.70;1.00;226.50;231333.00;;;;4981430;28;20752;-71
2022/03/15 05:48:56;;;;;;;0.10;0.10;;;1.70;1.00;226.50;231333.00;;;;4964074;28;20563;-71
2022/03/15 05:51:23;;;;;;;0.10;0.10;;;1.70;1.00;226.50;231333.00;;;;4987628;28;20208;-71
2022/03/15 05:53:52;;;;;;;0.10;0.10;;;1.70;1.00;226.50;231333.00;;;;4995558;28;20193;-71
2022/03/15 05:56:20;;;;;;;0.10;0.10;;;1.60;1.00;226.50;231333.00;;;;4995536;28;20204;-71
2022/03/15 05:58:48;;;;;;;0.20;0.20;;;1.60;1.00;226.50;231333.00;;;;4987918;28;20251;-71
2022/03/15 06:01:17;;;;;;;0.10;0.10;;;1.50;1.00;226.50;231333.00;;;;4988298;28;20275;-71
2022/03/15 06:03:47;;;;;;;0.10;0.10;;;1.50;1.00;226.50;231333.00;;;;4990502;28;20216;-72
2022/03/15 06:06:16;;;;;;;0.10;0.10;;;1.50;1.00;226.50;231333.00;;;;4990840;28;20189;-71
2022/03/15 06:08:44;;;;;;;0.10;0.10;;;1.50;1.00;226.50;231333.00;;;;4990410;28;20220;-71
2022/03/15 06:11:13;;;;;;;0.10;0.10;;;1.70;1.00;226.50;231333.00;;;;4984705;28;20295;-72
2022/03/15 06:13:41;;;;;;;0.10;0.10;;;1.90;1.00;226.50;231333.00;;;;4982297;28;20196;-72
2022/03/15 06:16:09;;;;;;;0.10;0.10;;;2.10;1.00;226.50;231333.00;;;;4979220;28;20201;-72
2022/03/15 06:18:39;;;;;;;0.10;0.10;;;2.20;1.00;226.50;231333.00;;;;4981761;28;20657;-71
2022/03/15 06:21:09;;;;;;;0.10;0.10;;;2.20;1.00;226.50;231333.00;;;;4983985;28;20228;-71
2022/03/15 06:23:37;;;;;;;0.10;0.10;;;2.30;1.00;226.50;231333.00;;;;4984926;28;20196;-71
2022/03/15 06:26:25;;;;;;;0.10;0.10;;;2.10;1.00;226.50;231333.00;;;;4964045;28;20209;-72
2022/03/15 06:28:53;;;;;;;0.10;0.10;;;2.10;1.00;226.50;231333.00;;;;4980187;28;20240;-72
2022/03/15 06:31:21;;;;;;;0.08;0.08;;;2.00;1.00;226.50;231333.00;;;;4980031;28;20220;-71
2022/03/15 06:33:49;;;;;;;0.10;0.10;;;1.90;1.00;226.50;231333.00;;;;4980322;28;20280;-72
2022/03/15 06:36:18;;;;;;;0.10;0.10;;;1.70;1.00;226.50;231333.00;;;;4980968;28;20215;-71
2022/03/15 06:38:46;;;;;;;0.10;0.10;;;1.70;1.00;226.50;231333.00;;;;4983438;28;20209;-71
2022/03/15 06:41:14;;;;;;;0.10;0.10;;;1.80;1.00;226.50;231333.00;;;;4980808;28;20627;-71
2022/03/15 06:43:43;;;;;;;0.10;0.10;;;1.80;1.00;226.50;231333.00;;;;4983166;28;20204;-71
2022/03/15 06:46:11;;;;;;;0.10;0.10;;;1.90;1.00;226.50;231333.00;;;;4983754;28;20671;-72
2022/03/15 06:48:39;;;;;;;0.10;0.10;;;2.10;1.00;226.50;231333.00;;;;4982816;28;20437;-71
2022/03/15 06:51:07;;;;;;;0.10;0.10;;;2.20;1.00;226.50;231333.00;;;;4985418;28;20713;-71
2022/03/15 06:53:36;;;;;;;0.10;0.10;;;2.20;1.00;226.50;231333.00;;;;4983994;28;20189;-71
2022/03/15 06:56:05;;;;;;;0.10;0.10;;;2.20;1.00;226.50;231333.00;;;;4983421;28;20621;-71
2022/03/15 06:58:36;;;;;;;0.10;0.10;;;2.10;1.00;226.50;231333.00;;;;4984642;28;20200;-71
2022/03/15 07:01:04;;;;;;;0.10;0.10;;;2.10;1.00;226.50;231333.00;;;;4984686;28;20234;-71
2022/03/15 07:03:34;;;;;;;0.10;0.10;;;2.30;1.00;226.50;231333.00;;;;4983964;28;20229;-71
2022/03/15 07:06:02;;;;;;;0.10;0.10;;;2.30;1.00;226.50;231333.00;;;;4983921;28;20574;-72
2022/03/15 07:08:30;;;;;;;0.10;0.10;;;2.40;1.00;226.50;231333.00;;;;4984320;28;20225;-71
2022/03/15 07:11:00;;;;;;;0.10;0.10;;;2.50;1.00;226.50;231333.00;;;;4984274;28;20214;-71
2022/03/15 07:13:28;;;;;;;0.10;0.10;;;2.50;1.00;226.50;231333.00;;;;4984917;28;20248;-72
2022/03/15 07:15:55;;;;;;;0.10;0.10;;;2.60;1.00;226.50;231333.00;;;;4984866;28;20209;-72
2022/03/15 07:18:23;;;;;;;0.10;0.10;;;2.80;1.00;226.50;231333.00;;;;4982888;28;20201;-72
2022/03/15 07:20:51;;;;;;;0.10;0.10;;;2.80;1.00;226.50;231333.00;;;;4983652;28;20213;-72
2022/03/15 07:23:19;;;;;;;0.10;0.10;;;3.00;1.00;226.50;231333.00;;;;4983605;28;20204;-72
2022/03/15 07:25:47;;;;;;;0.10;0.10;;;3.20;1.00;226.50;231333.00;;;;4983145;28;20295;-72
2022/03/15 07:28:17;;;;;;;0.10;0.10;;;3.20;1.00;226.50;231333.00;;;;4982099;28;20201;-72
2022/03/15 07:30:45;;;;;;;0.10;0.10;;;3.00;1.00;226.50;231333.00;;;;4983157;28;20275;-72
2022/03/15 07:33:13;;;;;;;0.08;0.08;;;2.90;1.00;226.50;231333.00;;;;4966468;28;20251;-72
2022/03/15 07:35:41;;;;;;;0.00;0.00;;;2.90;1.00;226.50;231333.00;;;;4981851;28;20200;-72
2022/03/15 07:38:09;;;;;;;0.10;0.10;;;3.00;1.00;226.50;231333.00;;;;4982263;28;20216;-72
2022/03/15 07:40:39;;;;;;;0.10;0.10;;;2.90;1.00;226.50;231333.00;;;;4984097;28;20225;-72
2022/03/15 07:43:08;;;;;;;0.10;0.10;;;2.90;1.00;226.50;231333.00;;;;4982597;28;20208;-72
2022/03/15 07:45:38;;;;;;;0.10;0.10;;;3.00;1.00;226.50;231333.00;;;;4982230;28;20606;-72
2022/03/15 07:48:07;;;;;;;0.10;0.10;;;3.20;1.00;226.50;231333.00;;;;4981787;28;20196;-72
2022/03/15 07:50:35;;;;;;;0.10;0.10;;;3.30;1.00;226.50;231333.00;;;;4983902;28;20718;-72
2022/03/15 07:53:03;;;;;;;0.10;0.10;;;3.40;1.00;226.50;231333.00;;;;4983231;28;20198;-71
2022/03/15 07:55:34;;;;;;;0.10;0.10;;;3.60;1.00;226.50;231333.00;;;;4980929;28;20208;-72
2022/03/15 07:58:04;;;;;;;0.10;0.10;;;3.70;1.00;226.50;231333.00;;;;4983668;28;20196;-72
2022/03/15 08:00:33;;;;;;;0.10;0.10;;;3.90;1.00;226.50;231333.00;;;;4983233;28;20551;-72
2022/03/15 08:03:02;;;;;;;0.10;0.10;;;4.00;1.00;226.50;231333.00;;;;4982096;28;20197;-72
2022/03/15 08:05:30;;;;;;;0.10;0.10;;;4.10;1.00;226.50;231333.00;;;;4982864;28;20569;-72
2022/03/15 08:07:58;;;;;;;0.10;0.10;;;4.00;1.00;226.50;231333.00;;;;4984624;28;20267;-72
2022/03/15 08:10:26;;;;;;;0.10;0.10;;;3.70;1.00;226.50;231333.00;;;;4981925;28;20220;-72
2022/03/15 08:12:54;;;;;;;0.10;0.10;;;3.70;1.00;226.50;231333.00;;;;4983171;28;20629;-72
2022/03/15 08:15:23;;;;;;;0.10;0.10;;;3.60;1.00;226.50;231333.00;;;;4986557;28;20662;-72
2022/03/15 08:17:52;;;;;;;0.10;0.10;;;3.60;1.00;226.50;231333.00;;;;4982695;28;20278;-72
2022/03/15 08:20:22;;;;;;;0.10;0.10;;;3.60;1.00;226.50;231333.00;;;;4981699;28;20665;-72
2022/03/15 08:22:50;;;;;;;0.10;0.10;;;3.70;1.00;226.50;231333.00;;;;4982173;28;20223;-73
2022/03/15 08:25:18;;;;;;;0.08;0.08;;;3.80;1.00;226.50;231333.00;;;;4982276;28;20194;-72
2022/03/15 08:27:46;;;;;;;0.10;0.10;;;3.90;1.00;226.50;231333.00;;;;4981547;28;20205;-72
2022/03/15 08:30:14;;;;;;;0.10;0.10;;;4.10;1.00;226.50;231333.00;;;;4980674;28;20620;-72
2022/03/15 08:32:42;;;;;;;0.10;0.10;;;4.30;1.00;226.50;231333.00;;;;4982197;28;20734;-72
2022/03/15 08:35:10;;;;;;;0.00;0.00;;;4.40;1.00;226.50;231333.00;;;;4981464;28;20275;-72
2022/03/15 08:37:42;;;;;;;0.10;0.10;;;4.50;1.00;226.50;231333.00;;;;4982844;28;20205;-72
2022/03/15 08:40:12;;;;;;;0.10;0.10;;;4.60;1.00;226.50;231333.00;;;;4982114;28;20228;-72
2022/03/15 08:42:40;;;;;;;0.10;0.10;;;4.80;1.00;226.50;231333.00;;;;4982759;28;20197;-71
2022/03/15 08:45:10;;;;;;;0.10;0.10;;;4.80;1.00;226.50;231333.00;;;;4982426;28;20197;-71
2022/03/15 08:47:39;;;;;;;0.10;0.10;;;4.90;1.00;226.50;231333.00;;;;4982181;28;20694;-72
2022/03/15 08:50:09;;;;;;;0.10;0.10;;;4.90;1.00;226.50;231333.00;;;;4981248;28;20850;-71
2022/03/15 08:52:39;;;;;;;0.10;0.10;;;5.00;1.00;226.50;231333.00;;;;4981603;28;20205;-71
2022/03/15 08:55:09;;;;;;;0.10;0.10;;;5.20;1.00;226.50;231333.00;;;;4982680;28;20674;-71
2022/03/15 08:57:37;;;;;;;0.00;0.00;;;5.30;1.00;226.50;231333.00;;;;4981920;28;20212;-71
2022/03/15 09:00:07;;;;;;;0.05;0.05;;;5.30;99.90;226.50;231333.00;;;;4981700;28;20220;-71
2022/03/15 09:02:35;;;;;;;0.10;0.10;;;5.40;99.90;226.50;231333.00;;;;4981796;28;20205;-71
2022/03/15 09:05:04;;;;;;;0.10;0.10;;;5.40;99.90;226.50;231333.00;;;;4963809;28;20204;-71
2022/03/15 09:07:32;;;;;;;0.10;0.10;;;5.50;99.90;226.50;231333.00;;;;4980595;28;20667;-71
2022/03/15 09:10:02;;;;;;;0.10;0.10;;;5.60;99.90;226.50;231333.00;;;;4982437;28;20213;-71
2022/03/15 09:12:31;;;;;;;0.10;0.10;;;5.70;99.90;226.50;231333.00;;;;4982106;28;20251;-71
2022/03/15 09:14:59;;;;;;;0.10;0.10;;;5.80;99.90;226.50;231333.00;;;;4982774;28;20200;-71
2022/03/15 09:17:27;;;;;;;0.10;0.10;;;5.90;99.90;226.50;231333.00;;;;4983192;28;20204;-71
2022/03/15 09:20:17;;;;;;;0.10;0.10;;;6.10;99.90;226.50;231333.00;;;;4981894;28;20732;-71
2022/03/15 09:22:45;;;;;;;0.00;0.00;;;6.30;99.90;226.50;231333.00;;;;4981891;28;20196;-71
2022/03/15 09:25:14;;;;;;;0.10;0.10;;;6.30;99.90;226.50;231333.00;;;;4981175;28;20603;-72
2022/03/15 09:27:42;;;;;;;0.10;0.10;;;6.40;99.90;226.50;231333.00;;;;4980536;28;20201;-71
2022/03/15 09:30:11;;;;;;;0.10;0.10;;;6.50;99.90;226.50;231333.00;;;;4981187;28;20227;-72
2022/03/15 09:32:40;;;;;;;0.10;0.10;;;6.60;99.90;226.50;231333.00;;;;4981746;28;20545;-72
2022/03/15 09:35:09;;;;;;;0.10;0.10;;;6.70;99.90;226.50;231333.00;;;;4980994;28;20263;-71
2022/03/15 09:37:38;;;;;;;0.10;0.10;;;6.80;99.90;226.50;231333.00;;;;4977853;28;20200;-72
2022/03/15 09:40:11;;;;;;;0.10;0.10;;;6.90;99.90;226.50;231333.00;;;;4980877;28;20310;-71
2022/03/15 09:42:44;;;;;;;0.10;0.10;;;7.00;99.90;226.50;231333.00;;;;4981019;28;20193;-71
2022/03/15 09:45:13;;;;;;;0.10;0.10;;;7.00;99.90;226.50;231333.00;;;;4981687;28;20209;-71
2022/03/15 09:47:45;;;;;;;0.10;0.10;;;7.20;99.90;226.50;231333.00;;;;4981036;28;20725;-71
2022/03/15 09:50:14;;;;;;;0.10;0.10;;;7.30;99.90;226.50;231333.00;;;;4979939;28;20215;-71
2022/03/15 09:52:43;;;;;;;0.00;0.00;;;7.30;29.40;226.50;231333.00;;;;4980978;28;20263;-71
2022/03/15 09:55:12;;;;;;;0.10;0.10;;;7.40;19.00;226.50;231333.00;;;;4981988;28;20207;-71
2022/03/15 09:57:42;;;;;;;0.10;0.10;;;7.60;1.00;226.50;231333.00;;;;4980385;28;20659;-71
2022/03/15 10:00:12;;;;;;;0.10;0.10;;;7.70;1.00;226.50;231333.00;;;;4979940;28;20275;-71
2022/03/15 10:02:41;;;;;;;0.10;0.10;;;7.70;1.00;226.50;231333.00;;;;4980583;28;20748;-71
2022/03/15 10:05:11;;;;;;;0.10;0.10;;;7.80;1.00;226.50;231333.00;;;;4981385;28;20196;-72
2022/03/15 10:07:40;;;;;;;0.10;0.10;;;8.00;1.00;226.50;231333.00;;;;4981679;28;20634;-70
2022/03/15 10:10:11;;;;;;;0.10;0.10;;;8.10;1.00;226.50;231333.00;;;;4963704;28;20334;-71
2022/03/15 10:12:39;;;;;;;0.10;0.10;;;8.30;1.00;226.50;231333.00;;;;4981548;28;20680;-72
2022/03/15 10:15:14;;;;;;;0.10;0.10;;;8.40;1.00;226.50;231333.00;;;;4980830;28;20537;-71
2022/03/15 10:17:45;;;;;;;0.10;0.10;;;8.40;1.00;226.50;231333.00;;;;4982688;28;20239;-71
2022/03/15 10:20:18;;;;;;;0.10;0.10;;;8.50;1.00;226.50;231333.00;;;;4986503;28;20219;-71
2022/03/15 10:22:54;;;;;;;0.10;0.10;;;8.50;99.90;226.50;231333.00;;;;4985771;28;20204;-72
2022/03/15 10:25:24;;;;;;;0.10;0.10;;;8.70;1.00;226.50;231333.00;;;;4987478;28;20670;-71
2022/03/15 10:27:56;;;;;;;0.10;0.10;;;8.80;1.00;226.50;231333.00;;;;4985678;28;20200;-71
2022/03/15 10:30:28;;;;;;;0.10;0.10;;;9.00;99.90;226.50;231333.00;;;;4984107;28;20234;-73
2022/03/15 10:32:58;;;;;;;0.10;0.10;;;9.10;1.00;226.50;231333.00;;;;4983790;28;20201;-73
2022/03/15 10:35:29;;;;;;;0.10;0.10;;;9.20;1.00;226.50;231333.00;;;;4984843;28;20673;-71
2022/03/15 10:37:59;;;;;;;0.10;0.10;;;9.30;1.00;226.50;231333.00;;;;4984165;28;20593;-73
2022/03/15 10:40:34;;;;;;;0.10;0.10;;;9.40;1.00;226.50;231333.00;;;;4983456;28;20259;-71
2022/03/15 10:43:08;;;;;;;0.10;0.10;;;9.40;99.90;226.50;231333.00;;;;4984005;28;20248;-72
2022/03/15 10:45:42;;;;;;;0.10;0.10;;;9.60;99.90;226.50;231333.00;;;;4984463;28;20204;-73
2022/03/15 10:48:17;;;;;;;0.10;0.10;;;9.60;1.00;226.50;231333.00;;;;4983973;28;20185;-71
2022/03/15 10:50:57;;;;;;;0.10;0.10;;;9.80;99.90;226.50;231333.00;;;;4984400;28;20236;-72
2022/03/15 10:53:38;;;;;;;0.10;0.10;;;9.80;99.90;226.50;231333.00;;;;4983253;28;20676;-71
2022/03/15 10:56:12;;;;;;;0.10;0.10;;;9.90;1.00;226.50;231333.00;;;;4982966;28;20207;-72
2022/03/15 10:58:49;;;;;;;0.10;0.10;;;10.00;99.90;226.50;231333.00;;;;4983106;28;20211;-72
2022/03/15 11:01:21;;;;;;;0.10;0.10;;;10.00;1.00;226.50;231333.00;;;;4983384;28;20669;-72